Time;durP1;ratioP1;P1;durP2;ratioP2;P2;SDS_P1;SDS_P2;PMS_P1;PMS_P2;Temp;Humidity;BMP_temperature;BMP_pressure;BME280_temperature;BME280_humidity;BME280_pressure;Samples;Min_cycle;Max_cycle;Signal;HPM_P1;HPM_P2
2021/01/05 00:01:03;;;;;;;141.73;73.13;;;4.80;99.90;;;;;;4207889;28;20265;-43
2021/01/05 00:03:04;;;;;;;113.93;61.40;;;4.80;99.90;;;;;;4206889;28;20286;-44
2021/01/05 00:05:07;;;;;;;126.43;68.07;;;4.80;99.90;;;;;;4207305;28;20292;-43
2021/01/05 00:07:09;;;;;;;121.83;66.33;;;4.80;99.90;;;;;;4206879;28;20342;-39
2021/01/05 00:09:10;;;;;;;141.20;72.30;;;4.80;99.90;;;;;;4207350;28;20345;-43
2021/01/05 00:11:12;;;;;;;130.47;69.70;;;4.80;99.90;;;;;;4206283;28;20318;-44
2021/01/05 00:13:13;;;;;;;136.57;73.57;;;4.80;99.90;;;;;;4207643;28;20322;-42
2021/01/05 00:15:16;;;;;;;120.83;67.67;;;4.80;99.90;;;;;;4205930;28;20277;-45
2021/01/05 00:17:19;;;;;;;159.60;71.80;;;4.80;99.90;;;;;;4208984;28;20257;-43
2021/01/05 00:19:21;;;;;;;163.83;68.07;;;4.80;99.90;;;;;;4207959;28;20261;-46
2021/01/05 00:21:25;;;;;;;142.40;68.17;;;4.80;99.90;;;;;;4207022;28;20256;-44
2021/01/05 00:23:26;;;;;;;115.23;60.97;;;4.80;99.90;;;;;;4206791;28;20837;-44
2021/01/05 00:25:28;;;;;;;156.00;69.13;;;4.70;99.90;;;;;;4206580;28;20377;-41
2021/01/05 00:27:31;;;;;;;129.13;64.13;;;4.70;99.90;;;;;;4207318;28;20265;-44
2021/01/05 00:29:32;;;;;;;140.90;66.27;;;4.70;99.90;;;;;;4206401;28;20272;-46
2021/01/05 00:31:33;;;;;;;119.60;63.03;;;4.70;99.90;;;;;;4207496;28;20265;-43
2021/01/05 00:33:35;;;;;;;114.57;61.80;;;4.70;99.90;;;;;;4205922;28;20655;-48
2021/01/05 00:35:38;;;;;;;109.33;59.70;;;4.70;99.90;;;;;;4207161;28;20264;-44
2021/01/05 00:37:39;;;;;;;116.10;62.20;;;4.70;99.90;;;;;;4206046;28;20329;-42
2021/01/05 00:39:44;;;;;;;101.70;56.03;;;4.70;99.90;;;;;;4205821;28;20619;-44
2021/01/05 00:41:45;;;;;;;114.53;58.97;;;4.80;99.90;;;;;;4206512;28;20814;-44
2021/01/05 00:43:50;;;;;;;106.20;57.20;;;4.70;99.90;;;;;;4207312;28;20329;-44
2021/01/05 00:45:51;;;;;;;109.63;59.67;;;4.70;99.90;;;;;;4205536;28;20280;-42
2021/01/05 00:47:52;;;;;;;110.70;60.57;;;4.80;99.90;;;;;;4207253;28;20284;-43
2021/01/05 00:49:53;;;;;;;117.90;61.20;;;4.70;99.90;;;;;;4205589;28;20337;-44
2021/01/05 00:51:54;;;;;;;152.63;66.33;;;4.70;99.90;;;;;;4207223;28;20285;-43
2021/01/05 00:53:55;;;;;;;100.70;57.13;;;4.70;99.90;;;;;;4205992;28;20256;-45
2021/01/05 00:55:56;;;;;;;119.97;59.60;;;4.70;99.90;;;;;;4206617;28;20265;-47
2021/01/05 00:57:57;;;;;;;110.67;54.23;;;4.70;99.90;;;;;;4206843;28;20733;-46
2021/01/05 00:59:58;;;;;;;108.43;56.63;;;4.70;99.90;;;;;;4206311;28;20273;-47
2021/01/05 01:02:00;;;;;;;137.60;67.00;;;4.70;99.90;;;;;;4207203;28;20261;-44
2021/01/05 01:04:01;;;;;;;135.20;64.33;;;4.70;99.90;;;;;;4206344;28;20276;-42
2021/01/05 01:06:02;;;;;;;185.33;72.53;;;4.70;99.90;;;;;;4206924;28;20292;-43
2021/01/05 01:08:04;;;;;;;300.07;86.13;;;4.60;99.90;;;;;;4205544;28;20272;-45
2021/01/05 01:10:06;;;;;;;196.77;77.63;;;4.50;99.90;;;;;;4206926;28;20277;-47
2021/01/05 01:12:20;;;;;;;281.20;85.47;;;4.50;99.90;;;;;;4205868;28;20257;-43
2021/01/05 01:14:21;;;;;;;138.80;70.53;;;4.50;99.90;;;;;;4206723;28;20264;-43
2021/01/05 01:16:22;;;;;;;162.47;76.60;;;4.40;99.90;;;;;;4206087;28;20257;-45
2021/01/05 01:18:23;;;;;;;173.33;78.93;;;4.40;99.90;;;;;;4207079;28;20671;-44
2021/01/05 01:20:25;;;;;;;195.97;81.53;;;4.40;99.90;;;;;;4205926;28;20261;-45
2021/01/05 01:22:26;;;;;;;209.93;82.13;;;4.40;99.90;;;;;;4206969;28;20269;-43
2021/01/05 01:24:27;;;;;;;171.17;85.20;;;4.40;99.90;;;;;;4205471;28;20272;-46
2021/01/05 01:26:28;;;;;;;186.97;87.47;;;4.30;99.90;;;;;;4206692;28;20741;-46
2021/01/05 01:28:29;;;;;;;158.73;82.13;;;4.40;99.90;;;;;;4206000;28;20277;-44
2021/01/05 01:30:30;;;;;;;207.30;90.70;;;4.30;99.90;;;;;;4206349;28;20277;-46
2021/01/05 01:32:33;;;;;;;204.53;90.67;;;4.30;99.90;;;;;;4206046;28;20269;-44
2021/01/05 01:34:34;;;;;;;221.97;93.10;;;4.30;99.90;;;;;;4206287;28;20265;-45
2021/01/05 01:36:35;;;;;;;237.57;91.50;;;4.30;99.90;;;;;;4206111;28;20353;-44
2021/01/05 01:38:36;;;;;;;193.50;88.63;;;4.30;99.90;;;;;;4205455;28;20318;-44
2021/01/05 01:40:42;;;;;;;278.57;97.93;;;4.20;99.90;;;;;;4206309;28;20318;-46
2021/01/05 01:42:43;;;;;;;272.63;94.27;;;4.20;99.90;;;;;;4205692;28;20281;-44
2021/01/05 01:44:47;;;;;;;311.20;102.10;;;4.20;99.90;;;;;;4208614;28;20814;-50
2021/01/05 01:46:50;;;;;;;206.43;88.03;;;4.20;99.90;;;;;;4208521;28;20261;-44
2021/01/05 01:48:52;;;;;;;273.17;84.63;;;4.10;99.90;;;;;;4210003;28;20264;-45
2021/01/05 01:50:54;;;;;;;208.53;83.40;;;4.10;99.90;;;;;;4208760;28;20318;-47
2021/01/05 01:53:07;;;;;;;185.00;85.63;;;4.10;99.90;;;;;;4209937;28;20839;-45
2021/01/05 01:55:37;;;;;;;214.00;81.63;;;4.00;99.90;;;;;;4208372;28;20671;-43
2021/01/05 01:57:47;;;;;;;269.98;87.03;;;4.10;99.90;;;;;;4209256;28;20261;-44
2021/01/05 02:00:08;;;;;;;383.48;96.15;;;4.00;99.90;;;;;;4208564;28;20743;-47
2021/01/05 02:02:13;;;;;;;210.63;77.03;;;4.00;99.90;;;;;;4209929;28;20023;-45
2021/01/05 02:04:23;;;;;;;185.63;79.10;;;4.10;99.90;;;;;;4208760;28;20280;-47
2021/01/05 02:06:56;;;;;;;155.95;73.43;;;4.00;99.90;;;;;;4209378;28;20304;-47
2021/01/05 02:09:16;;;;;;;167.80;73.17;;;4.10;99.90;;;;;;4203176;28;20052;-46
2021/01/05 02:11:42;;;;;;;180.53;70.03;;;4.10;99.90;;;;;;4209190;28;20321;-45
2021/01/05 02:14:12;;;;;;;169.33;57.87;;;4.10;99.90;;;;;;4209222;28;20920;-44
2021/01/05 02:16:30;;;;;;;162.73;60.28;;;4.10;99.90;;;;;;4208379;28;20325;-44
2021/01/05 02:18:41;;;;;;;326.33;68.87;;;4.10;99.90;;;;;;4209355;28;20067;-44
2021/01/05 02:20:47;;;;;;;301.73;71.60;;;4.10;99.90;;;;;;4208258;28;20767;-42
2021/01/05 02:23:21;;;;;;;214.23;68.60;;;4.10;99.90;;;;;;4209748;28;20036;-45
2021/01/05 02:25:44;;;;;;;170.53;57.87;;;4.10;99.90;;;;;;4208043;28;20857;-43
2021/01/05 02:27:51;;;;;;;158.90;58.40;;;4.10;99.90;;;;;;4208081;28;20812;-47
2021/01/05 02:29:59;;;;;;;165.23;61.87;;;4.00;99.90;;;;;;4208249;28;20272;-47
2021/01/05 02:32:09;;;;;;;140.50;60.47;;;4.10;99.90;;;;;;4209436;28;20292;-44
2021/01/05 02:34:28;;;;;;;213.02;65.88;;;4.10;99.90;;;;;;4208216;28;20337;-45
2021/01/05 02:36:42;;;;;;;232.90;73.27;;;4.00;99.90;;;;;;4192865;28;20036;-45
2021/01/05 02:39:11;;;;;;;263.63;75.57;;;4.00;99.90;;;;;;4190960;28;20679;-45
2021/01/05 02:41:40;;;;;;;187.80;68.30;;;4.00;99.90;;;;;;4192507;28;20327;-47
2021/01/05 02:44:19;;;;;;;144.57;57.93;;;4.00;99.90;;;;;;4191405;28;20336;-47
2021/01/05 02:46:25;;;;;;;148.23;63.83;;;4.00;99.90;;;;;;4187338;28;20846;-48
2021/01/05 02:48:32;;;;;;;144.40;64.53;;;4.00;99.90;;;;;;4194607;28;20292;-46
2021/01/05 02:50:59;;;;;;;132.50;61.77;;;4.00;99.90;;;;;;4207921;28;20248;-44
2021/01/05 02:53:31;;;;;;;175.53;67.07;;;4.00;99.90;;;;;;4208863;28;20314;-48
2021/01/05 02:56:22;;;;;;;170.33;67.17;;;4.00;99.90;;;;;;4205690;28;20661;-41
2021/01/05 02:58:32;;;;;;;156.02;62.28;;;4.00;99.90;;;;;;4191618;28;20288;-48
2021/01/05 03:01:12;;;;;;;173.63;63.85;;;4.00;99.90;;;;;;4208116;28;20097;-43
2021/01/05 03:03:34;;;;;;;152.07;59.70;;;4.00;99.90;;;;;;4207867;28;20452;-48
2021/01/05 03:05:35;;;;;;;163.27;60.37;;;3.90;99.90;;;;;;4207949;28;20040;-48
2021/01/05 03:07:37;;;;;;;226.17;67.17;;;3.90;99.90;;;;;;4207624;28;20280;-48
2021/01/05 03:09:41;;;;;;;240.50;67.20;;;3.90;99.90;;;;;;4207435;28;20330;-48
2021/01/05 03:11:45;;;;;;;131.93;56.93;;;3.80;99.90;;;;;;4208347;28;21080;-46
2021/01/05 03:14:06;;;;;;;221.90;65.47;;;3.80;99.90;;;;;;4207248;28;20668;-45
2021/01/05 03:16:22;;;;;;;105.57;49.90;;;3.80;99.90;;;;;;4207896;28;20264;-44
2021/01/05 03:18:40;;;;;;;97.83;50.43;;;3.80;99.90;;;;;;4208027;28;20260;-44
2021/01/05 03:20:48;;;;;;;100.60;48.40;;;3.80;99.90;;;;;;4207712;28;20265;-45
2021/01/05 03:23:00;;;;;;;100.60;47.60;;;3.90;99.90;;;;;;4207959;28;20284;-44
2021/01/05 03:25:04;;;;;;;92.77;43.77;;;3.90;99.90;;;;;;4207046;28;20314;-47
2021/01/05 03:27:07;;;;;;;64.07;32.30;;;3.90;99.90;;;;;;4207200;28;20265;-48
2021/01/05 03:29:08;;;;;;;67.63;35.00;;;4.00;99.90;;;;;;4208117;28;20325;-48
2021/01/05 03:31:25;;;;;;;64.37;35.07;;;4.10;99.90;;;;;;4207272;28;20280;-48
2021/01/05 03:33:27;;;;;;;67.80;36.03;;;4.10;99.90;;;;;;4208475;28;20269;-46
2021/01/05 03:35:28;;;;;;;66.80;33.37;;;4.10;99.90;;;;;;4207346;28;20273;-44
2021/01/05 03:37:29;;;;;;;67.23;33.83;;;4.20;99.90;;;;;;4207893;28;20318;-45
2021/01/05 03:39:30;;;;;;;63.20;33.93;;;4.20;99.90;;;;;;4206587;28;20957;-49
2021/01/05 03:41:32;;;;;;;63.33;33.20;;;4.30;99.90;;;;;;4208110;28;20273;-44
2021/01/05 03:43:33;;;;;;;58.20;31.70;;;4.30;99.90;;;;;;4206821;28;20334;-44
2021/01/05 03:45:35;;;;;;;57.43;28.13;;;4.30;99.90;;;;;;4207800;28;20697;-46
2021/01/05 03:47:36;;;;;;;59.40;30.40;;;4.30;99.90;;;;;;4206444;28;20269;-44
2021/01/05 03:49:37;;;;;;;54.63;29.17;;;4.30;99.90;;;;;;4191499;28;20281;-47
2021/01/05 03:51:38;;;;;;;49.50;26.83;;;4.40;99.90;;;;;;4189397;28;20277;-43
2021/01/05 03:53:39;;;;;;;52.07;27.97;;;4.40;99.90;;;;;;4191530;28;20343;-49
2021/01/05 03:55:41;;;;;;;49.33;27.27;;;4.40;99.90;;;;;;4190162;28;20323;-46
2021/01/05 03:57:42;;;;;;;53.47;28.77;;;4.40;99.90;;;;;;4203141;28;20302;-44
2021/01/05 03:59:43;;;;;;;54.23;29.97;;;4.40;99.90;;;;;;4207311;28;20748;-49
2021/01/05 04:01:52;;;;;;;51.37;28.67;;;4.50;99.90;;;;;;4207173;28;20269;-43
2021/01/05 04:03:53;;;;;;;58.53;30.63;;;4.40;99.90;;;;;;4207166;28;20257;-43
2021/01/05 04:05:54;;;;;;;55.23;29.70;;;4.40;99.90;;;;;;4207029;28;21113;-47
2021/01/05 04:07:56;;;;;;;56.37;30.83;;;4.30;99.90;;;;;;4207385;28;20314;-45
2021/01/05 04:09:57;;;;;;;52.90;30.57;;;4.40;99.90;;;;;;4206019;28;20349;-46
2021/01/05 04:11:58;;;;;;;62.07;34.47;;;4.30;99.90;;;;;;4207769;28;20325;-50
2021/01/05 04:13:59;;;;;;;54.80;30.57;;;4.40;99.90;;;;;;4206854;28;20306;-48
2021/01/05 04:16:00;;;;;;;51.03;29.33;;;4.30;99.90;;;;;;4207204;28;20807;-44
2021/01/05 04:18:02;;;;;;;78.33;42.10;;;4.30;99.90;;;;;;4206465;28;20268;-47
2021/01/05 04:20:04;;;;;;;56.93;31.10;;;4.40;99.90;;;;;;4207810;28;20842;-50
2021/01/05 04:22:05;;;;;;;59.07;32.87;;;4.30;99.90;;;;;;4206252;28;20278;-47
2021/01/05 04:24:07;;;;;;;50.07;28.93;;;4.30;99.90;;;;;;4207949;28;20269;-46
2021/01/05 04:26:09;;;;;;;54.33;30.90;;;4.30;99.90;;;;;;4206002;28;20293;-45
2021/01/05 04:28:10;;;;;;;58.60;31.73;;;4.40;99.90;;;;;;4207823;28;20280;-45
2021/01/05 04:30:33;;;;;;;50.33;29.63;;;4.40;99.90;;;;;;4205788;28;20256;-49
2021/01/05 04:32:35;;;;;;;55.07;29.90;;;4.40;99.90;;;;;;4207298;28;20334;-45
2021/01/05 04:34:36;;;;;;;51.43;27.73;;;4.40;99.90;;;;;;4206333;28;20306;-45
2021/01/05 04:36:38;;;;;;;55.20;29.83;;;4.40;99.90;;;;;;4207012;28;20663;-55
2021/01/05 04:38:39;;;;;;;53.77;30.53;;;4.40;99.90;;;;;;4206227;28;20269;-46
2021/01/05 04:40:44;;;;;;;55.97;29.13;;;4.50;99.90;;;;;;4206592;28;20261;-45
2021/01/05 04:42:46;;;;;;;51.83;30.00;;;4.40;99.90;;;;;;4207260;28;20260;-47
2021/01/05 04:45:08;;;;;;;48.90;27.97;;;4.50;99.90;;;;;;4204852;28;20345;-46
2021/01/05 04:47:48;;;;;;;47.53;26.40;;;4.50;99.90;;;;;;4206410;28;20372;-48
2021/01/05 04:50:10;;;;;;;52.53;27.67;;;4.50;99.90;;;;;;4207542;28;20909;-49
2021/01/05 04:52:16;;;;;;;45.33;25.57;;;4.60;99.90;;;;;;4205706;28;20338;-48
2021/01/05 04:54:28;;;;;;;46.87;23.57;;;4.60;99.90;;;;;;4206817;28;20353;-46
2021/01/05 04:56:50;;;;;;;49.20;27.47;;;4.70;99.90;;;;;;4205754;28;20357;-43
2021/01/05 04:58:55;;;;;;;44.47;25.17;;;4.70;99.90;;;;;;4207126;28;21093;-48
2021/01/05 05:00:58;;;;;;;55.10;26.13;;;4.70;99.90;;;;;;4204977;28;20326;-47
2021/01/05 05:03:24;;;;;;;46.63;26.03;;;4.80;99.90;;;;;;4206606;28;20778;-48
2021/01/05 05:05:25;;;;;;;45.53;25.97;;;4.80;99.90;;;;;;4205233;28;20683;-46
2021/01/05 05:07:39;;;;;;;42.90;24.93;;;4.80;99.90;;;;;;4206839;28;20961;-48
2021/01/05 05:09:58;;;;;;;46.33;24.90;;;4.90;99.90;;;;;;4205711;28;20667;-46
2021/01/05 05:12:07;;;;;;;51.20;26.47;;;5.00;99.90;;;;;;4206707;28;20284;-47
2021/01/05 05:14:22;;;;;;;44.90;25.33;;;5.00;99.90;;;;;;4205702;28;20269;-47
2021/01/05 05:17:02;;;;;;;42.83;23.83;;;5.00;99.90;;;;;;4206545;28;20284;-44
2021/01/05 05:19:24;;;;;;;43.23;23.80;;;5.00;99.90;;;;;;4181578;28;20773;-47
2021/01/05 05:21:40;;;;;;;45.37;25.20;;;5.00;99.90;;;;;;4209310;28;20276;-48
2021/01/05 05:24:08;;;;;;;48.00;25.63;;;5.00;99.90;;;;;;4209115;28;20284;-49
2021/01/05 05:26:48;;;;;;;44.40;23.03;;;5.00;99.90;;;;;;4203786;28;21141;-51
2021/01/05 05:28:58;;;;;;;44.00;22.87;;;5.00;99.90;;;;;;4209763;28;20281;-49
2021/01/05 05:31:02;;;;;;;45.22;24.08;;;5.10;99.90;;;;;;4207253;28;20295;-47
2021/01/05 05:33:14;;;;;;;43.73;25.10;;;5.00;99.90;;;;;;4210247;28;20533;-51
2021/01/05 05:35:36;;;;;;;42.03;24.53;;;5.00;99.90;;;;;;4209408;28;20269;-46
2021/01/05 05:37:58;;;;;;;43.87;23.87;;;5.00;99.90;;;;;;4209955;28;20269;-49
2021/01/05 05:40:32;;;;;;;43.50;24.83;;;5.00;99.90;;;;;;4208137;28;20264;-49
2021/01/05 05:43:06;;;;;;;44.07;24.97;;;5.00;99.90;;;;;;4210215;28;20272;-47
2021/01/05 05:45:22;;;;;;;46.10;24.90;;;5.00;99.90;;;;;;4196889;28;20602;-46
2021/01/05 05:47:43;;;;;;;47.23;25.10;;;5.00;99.90;;;;;;4209464;28;21101;-51
2021/01/05 05:50:03;;;;;;;40.72;25.13;;;5.00;99.90;;;;;;4209556;28;20280;-51
2021/01/05 05:52:13;;;;;;;51.03;26.90;;;5.00;99.90;;;;;;4208865;28;20089;-50
2021/01/05 05:54:21;;;;;;;48.83;27.27;;;5.00;99.90;;;;;;4208824;28;20537;-50
2021/01/05 05:56:37;;;;;;;39.17;22.90;;;5.00;99.90;;;;;;4208528;28;20078;-46
2021/01/05 05:58:41;;;;;;;48.50;26.67;;;5.00;99.90;;;;;;4209401;28;20277;-45
2021/01/05 06:00:49;;;;;;;53.13;27.50;;;5.00;99.90;;;;;;4207849;28;20286;-45
2021/01/05 06:02:50;;;;;;;47.57;26.30;;;5.00;99.90;;;;;;4207677;28;20269;-50
2021/01/05 06:04:57;;;;;;;49.47;24.97;;;5.00;99.90;;;;;;4208813;28;20273;-46
2021/01/05 06:06:58;;;;;;;52.50;30.40;;;4.90;99.90;;;;;;4208766;28;20822;-49
2021/01/05 06:08:59;;;;;;;58.03;30.57;;;4.90;99.90;;;;;;4209324;28;20284;-47
2021/01/05 06:11:02;;;;;;;53.37;30.77;;;4.90;99.90;;;;;;4207729;28;20705;-49
2021/01/05 06:13:04;;;;;;;59.47;30.50;;;4.90;99.90;;;;;;4209520;28;20318;-47
2021/01/05 06:15:06;;;;;;;51.60;28.77;;;4.90;99.90;;;;;;4207885;28;20292;-45
2021/01/05 06:17:07;;;;;;;53.63;28.70;;;4.90;99.90;;;;;;4208446;28;20659;-48
2021/01/05 06:19:08;;;;;;;49.63;28.73;;;4.90;99.90;;;;;;4207663;28;20276;-47
2021/01/05 06:21:09;;;;;;;59.83;31.20;;;4.90;99.90;;;;;;4209082;28;20277;-54
2021/01/05 06:23:10;;;;;;;64.70;33.43;;;4.90;99.90;;;;;;4206798;28;20273;-47
2021/01/05 06:25:14;;;;;;;60.53;32.83;;;4.90;99.90;;;;;;4208980;28;20272;-49
2021/01/05 06:27:15;;;;;;;62.17;32.47;;;4.80;99.90;;;;;;4205379;28;20698;-49
2021/01/05 06:29:16;;;;;;;60.63;33.47;;;4.80;99.90;;;;;;4208522;28;20354;-47
2021/01/05 06:31:17;;;;;;;60.37;32.73;;;4.80;99.90;;;;;;4207274;28;20265;-47
2021/01/05 06:33:18;;;;;;;63.43;33.73;;;4.90;99.90;;;;;;4208043;28;20772;-47
2021/01/05 06:35:22;;;;;;;59.50;32.20;;;4.80;99.90;;;;;;4207612;28;20273;-52
2021/01/05 06:37:23;;;;;;;63.73;31.50;;;4.90;99.90;;;;;;4207442;28;20284;-48
2021/01/05 06:39:24;;;;;;;61.10;32.43;;;4.90;99.90;;;;;;4207954;28;20268;-47
2021/01/05 06:41:25;;;;;;;61.83;34.50;;;4.90;99.90;;;;;;4207489;28;21054;-53
2021/01/05 06:43:26;;;;;;;62.90;32.93;;;4.90;99.90;;;;;;4208948;28;20334;-45
2021/01/05 06:45:32;;;;;;;62.00;35.03;;;5.00;99.90;;;;;;4207420;28;20790;-46
2021/01/05 06:47:33;;;;;;;66.83;33.97;;;5.00;99.90;;;;;;4208330;28;20300;-44
2021/01/05 06:49:34;;;;;;;68.07;37.77;;;4.90;99.90;;;;;;4207040;28;20325;-47
2021/01/05 06:51:35;;;;;;;66.77;37.30;;;5.00;99.90;;;;;;4208378;28;20963;-48
2021/01/05 06:53:36;;;;;;;76.17;41.37;;;5.00;99.90;;;;;;4207802;28;20341;-49
2021/01/05 06:55:37;;;;;;;71.03;40.53;;;5.00;99.90;;;;;;4208556;28;20829;-48
2021/01/05 06:57:39;;;;;;;69.63;39.37;;;5.00;99.90;;;;;;4207512;28;20298;-47
2021/01/05 06:59:40;;;;;;;65.03;37.53;;;5.00;99.90;;;;;;4208684;28;20265;-47
2021/01/05 07:01:41;;;;;;;62.03;34.93;;;5.00;99.90;;;;;;4207342;28;20252;-54
2021/01/05 07:03:42;;;;;;;72.23;36.90;;;5.10;99.90;;;;;;4208085;28;20812;-44
2021/01/05 07:05:43;;;;;;;72.83;38.13;;;5.10;99.90;;;;;;4207427;28;20284;-49
2021/01/05 07:07:45;;;;;;;69.13;38.90;;;5.10;99.90;;;;;;4208239;28;20326;-44
2021/01/05 07:09:47;;;;;;;82.37;42.07;;;5.10;99.90;;;;;;4207442;28;20281;-46
2021/01/05 07:11:49;;;;;;;73.13;38.47;;;5.20;99.90;;;;;;4206587;28;20906;-51
2021/01/05 07:13:50;;;;;;;79.93;42.33;;;5.20;99.90;;;;;;4207461;28;20334;-43
2021/01/05 07:15:53;;;;;;;73.87;40.30;;;5.20;99.90;;;;;;4207461;28;20281;-43
2021/01/05 07:17:54;;;;;;;83.53;45.83;;;5.20;99.90;;;;;;4208453;28;20268;-52
2021/01/05 07:19:55;;;;;;;79.77;40.93;;;5.10;99.90;;;;;;4207192;28;20272;-45
2021/01/05 07:21:56;;;;;;;76.47;43.37;;;5.10;99.90;;;;;;4208513;28;20322;-47
2021/01/05 07:23:57;;;;;;;65.30;35.70;;;5.00;99.90;;;;;;4206434;28;20265;-43
2021/01/05 07:25:58;;;;;;;59.73;33.83;;;5.00;99.90;;;;;;4208039;28;20305;-52
2021/01/05 07:28:00;;;;;;;59.53;31.73;;;5.00;99.90;;;;;;4206982;28;20261;-50
2021/01/05 07:30:04;;;;;;;51.73;29.10;;;5.10;99.90;;;;;;4208391;28;20269;-43
2021/01/05 07:32:05;;;;;;;62.27;33.50;;;5.20;99.90;;;;;;4204629;28;20342;-46
2021/01/05 07:34:08;;;;;;;42.30;23.77;;;5.30;99.90;;;;;;4208196;28;21046;-49
2021/01/05 07:36:31;;;;;;;46.90;25.73;;;5.30;99.90;;;;;;4207365;28;20269;-49
2021/01/05 07:38:32;;;;;;;44.27;22.97;;;5.40;99.90;;;;;;4208166;28;20285;-46
2021/01/05 07:40:33;;;;;;;49.83;26.70;;;5.50;99.90;;;;;;4206898;28;20253;-45
2021/01/05 07:42:35;;;;;;;61.60;27.33;;;5.60;99.90;;;;;;4206763;28;20273;-48
2021/01/05 07:44:36;;;;;;;62.40;27.80;;;5.70;99.90;;;;;;4206810;28;20340;-45
2021/01/05 07:46:37;;;;;;;29.40;15.50;;;5.60;99.90;;;;;;4206937;28;20355;-49
2021/01/05 07:48:39;;;;;;;40.60;20.13;;;5.70;99.90;;;;;;4207572;28;20822;-48
2021/01/05 07:50:40;;;;;;;31.47;17.23;;;5.80;99.90;;;;;;4206505;28;20742;-49
2021/01/05 07:52:41;;;;;;;29.50;14.90;;;5.90;99.90;;;;;;4208068;28;21051;-44
2021/01/05 07:54:42;;;;;;;25.73;13.80;;;6.00;99.90;;;;;;4206106;28;20362;-45
2021/01/05 07:56:45;;;;;;;20.43;12.23;;;6.10;99.90;;;;;;4207201;28;20090;-43
2021/01/05 07:58:46;;;;;;;17.40;10.57;;;6.10;99.90;;;;;;4206377;28;20036;-43
2021/01/05 08:00:47;;;;;;;18.33;11.90;;;6.20;99.90;;;;;;4207450;28;20806;-51
2021/01/05 08:02:49;;;;;;;18.43;9.93;;;6.30;99.90;;;;;;4206099;28;20032;-45
2021/01/05 08:04:50;;;;;;;15.37;9.47;;;6.30;99.90;;;;;;4208084;28;20480;-44
2021/01/05 08:06:51;;;;;;;17.80;10.67;;;6.40;99.90;;;;;;4206220;28;20113;-45
2021/01/05 08:08:52;;;;;;;18.37;10.37;;;6.50;99.90;;;;;;4207365;28;20044;-49
2021/01/05 08:10:53;;;;;;;15.23;9.27;;;6.50;99.90;;;;;;4206328;28;20101;-45
2021/01/05 08:12:54;;;;;;;18.83;11.20;;;6.50;99.90;;;;;;4206846;28;20035;-48
2021/01/05 08:14:56;;;;;;;21.10;12.50;;;6.50;99.90;;;;;;4206491;28;20089;-42
2021/01/05 08:17:00;;;;;;;25.87;13.10;;;6.50;99.90;;;;;;4206811;28;20044;-44
2021/01/05 08:19:01;;;;;;;33.00;17.47;;;6.60;99.90;;;;;;4206899;28;20117;-48
2021/01/05 08:21:02;;;;;;;28.87;16.77;;;6.60;99.90;;;;;;4206002;28;20174;-45
2021/01/05 08:23:04;;;;;;;22.60;13.87;;;6.60;99.90;;;;;;4206526;28;20073;-46
2021/01/05 08:25:06;;;;;;;27.40;13.83;;;6.60;99.90;;;;;;4205735;28;20085;-45
2021/01/05 08:27:11;;;;;;;26.43;15.07;;;6.70;99.90;;;;;;4207012;28;20052;-46
2021/01/05 08:29:13;;;;;;;24.50;14.10;;;6.70;99.90;;;;;;4205900;28;20048;-46
2021/01/05 08:31:15;;;;;;;35.43;18.23;;;6.70;99.90;;;;;;4207029;28;20044;-49
2021/01/05 08:33:16;;;;;;;28.80;15.53;;;6.70;99.90;;;;;;4205856;28;20048;-46
2021/01/05 08:35:20;;;;;;;28.87;15.57;;;6.70;99.90;;;;;;4207499;28;20556;-46
2021/01/05 08:37:21;;;;;;;22.17;12.63;;;6.70;99.90;;;;;;4205733;28;20036;-45
2021/01/05 08:39:22;;;;;;;32.40;17.93;;;6.70;99.90;;;;;;4207060;28;20024;-46
2021/01/05 08:41:23;;;;;;;31.57;15.23;;;6.70;99.90;;;;;;4205746;28;20085;-43
2021/01/05 08:43:24;;;;;;;30.80;17.63;;;6.80;99.90;;;;;;4206903;28;20700;-48
2021/01/05 08:45:26;;;;;;;34.47;18.43;;;6.80;99.90;;;;;;4206125;28;20978;-46
2021/01/05 08:47:27;;;;;;;52.57;24.47;;;6.90;99.90;;;;;;4206036;28;20046;-50
2021/01/05 08:49:30;;;;;;;44.37;22.77;;;6.90;99.90;;;;;;4206368;28;20435;-45
2021/01/05 08:51:32;;;;;;;54.37;26.00;;;6.90;99.90;;;;;;4204302;28;20040;-49
2021/01/05 08:53:33;;;;;;;44.67;22.83;;;6.90;99.90;;;;;;4206203;28;20032;-46
2021/01/05 08:55:40;;;;;;;40.17;22.57;;;6.80;99.90;;;;;;4208846;28;20047;-48
2021/01/05 08:57:43;;;;;;;38.33;20.97;;;6.90;99.90;;;;;;4210180;28;20062;-46
2021/01/05 08:59:47;;;;;;;39.07;20.47;;;6.90;99.90;;;;;;4209128;28;20054;-50
2021/01/05 09:01:49;;;;;;;40.50;21.80;;;7.00;99.90;;;;;;4210440;28;20081;-45
2021/01/05 09:03:50;;;;;;;42.80;20.93;;;7.00;99.90;;;;;;4208990;28;20422;-43
2021/01/05 09:05:51;;;;;;;38.93;20.80;;;7.00;99.90;;;;;;4210688;28;20070;-44
2021/01/05 09:07:52;;;;;;;36.37;18.73;;;7.00;99.90;;;;;;4209196;28;20059;-45
2021/01/05 09:09:53;;;;;;;30.73;16.30;;;7.00;99.90;;;;;;4210085;28;20508;-49
2021/01/05 09:11:57;;;;;;;32.83;17.90;;;7.10;99.90;;;;;;4209009;28;20533;-47
2021/01/05 09:13:58;;;;;;;29.80;17.53;;;7.10;99.90;;;;;;4210485;28;20052;-48
2021/01/05 09:15:59;;;;;;;31.27;16.03;;;7.10;99.90;;;;;;4209356;28;20101;-44
2021/01/05 09:18:02;;;;;;;23.57;13.70;;;7.10;99.90;;;;;;4210144;28;20031;-45
2021/01/05 09:20:04;;;;;;;29.83;16.00;;;7.20;99.90;;;;;;4209099;28;20032;-47
2021/01/05 09:22:05;;;;;;;32.23;16.40;;;7.20;99.90;;;;;;4208890;28;20089;-45
2021/01/05 09:24:06;;;;;;;29.70;15.53;;;7.30;99.90;;;;;;4209388;28;20572;-49
2021/01/05 09:26:17;;;;;;;29.03;15.33;;;7.30;99.90;;;;;;4208373;28;20032;-47
2021/01/05 09:28:19;;;;;;;29.33;16.45;;;7.40;99.90;;;;;;4209333;28;20047;-45
2021/01/05 09:30:21;;;;;;;26.67;15.40;;;7.30;99.90;;;;;;4208976;28;20094;-46
2021/01/05 09:32:22;;;;;;;27.27;15.77;;;7.40;99.90;;;;;;4209101;28;20052;-50
2021/01/05 09:34:25;;;;;;;30.97;16.73;;;7.40;99.90;;;;;;4208442;28;20048;-45
2021/01/05 09:36:30;;;;;;;31.13;15.57;;;7.50;99.90;;;;;;4210214;28;20043;-45
2021/01/05 09:38:32;;;;;;;36.93;20.07;;;7.50;99.90;;;;;;4208464;28;20048;-47
2021/01/05 09:40:33;;;;;;;41.07;21.67;;;7.50;99.90;;;;;;4209418;28;20040;-43
2021/01/05 09:42:34;;;;;;;37.00;22.10;;;7.50;99.90;;;;;;4208166;28;20081;-46
2021/01/05 09:44:35;;;;;;;37.90;23.73;;;7.50;99.90;;;;;;4208315;28;20086;-46
2021/01/05 09:46:39;;;;;;;44.27;26.00;;;7.50;99.90;;;;;;4208414;28;20090;-44
2021/01/05 09:48:42;;;;;;;47.23;25.60;;;7.40;99.90;;;;;;4209999;28;20077;-43
2021/01/05 09:50:45;;;;;;;46.33;25.20;;;7.40;99.90;;;;;;4208414;28;20480;-46
2021/01/05 09:52:46;;;;;;;48.43;26.43;;;7.40;99.90;;;;;;4209498;28;20085;-44
2021/01/05 09:54:48;;;;;;;49.70;24.70;;;7.50;99.90;;;;;;4208253;28;20032;-45
2021/01/05 09:56:52;;;;;;;32.53;18.83;;;7.50;99.90;;;;;;4209299;28;20406;-49
2021/01/05 09:58:53;;;;;;;31.80;16.93;;;7.40;99.90;;;;;;4208267;28;20032;-46
2021/01/05 10:00:54;;;;;;;25.73;15.23;;;7.40;99.90;;;;;;4209033;28;20536;-44
2021/01/05 10:02:55;;;;;;;24.87;14.63;;;7.40;99.90;;;;;;4208693;28;20073;-47
2021/01/05 10:04:56;;;;;;;22.17;13.27;;;7.30;99.90;;;;;;4209024;28;20094;-44
2021/01/05 10:06:57;;;;;;;23.77;13.23;;;7.30;99.90;;;;;;4208832;28;20140;-44
2021/01/05 10:09:00;;;;;;;23.67;12.87;;;7.30;99.90;;;;;;4208556;28;20048;-51
2021/01/05 10:11:01;;;;;;;22.63;12.97;;;7.30;99.90;;;;;;4209699;28;20074;-46
2021/01/05 10:13:02;;;;;;;21.33;13.23;;;7.30;99.90;;;;;;4206466;28;20029;-46
2021/01/05 10:15:04;;;;;;;23.67;14.23;;;7.30;99.90;;;;;;4208798;28;20036;-44
2021/01/05 10:17:05;;;;;;;22.53;12.77;;;7.30;99.90;;;;;;4207404;28;20039;-46
2021/01/05 10:19:06;;;;;;;21.90;12.10;;;7.30;99.90;;;;;;4208810;28;20032;-44
2021/01/05 10:21:07;;;;;;;23.20;13.23;;;7.30;99.90;;;;;;4207794;28;20121;-46
2021/01/05 10:23:08;;;;;;;20.73;12.17;;;7.30;99.90;;;;;;4209560;28;20361;-48
2021/01/05 10:25:11;;;;;;;21.87;12.87;;;7.30;99.90;;;;;;4207685;28;20545;-48
2021/01/05 10:27:13;;;;;;;22.27;13.37;;;7.40;99.90;;;;;;4209229;28;20052;-44
2021/01/05 10:29:14;;;;;;;23.97;14.13;;;7.40;99.90;;;;;;4207959;28;20484;-45
2021/01/05 10:31:15;;;;;;;23.00;15.60;;;7.40;99.90;;;;;;4208183;28;20036;-46
2021/01/05 10:33:16;;;;;;;25.63;13.73;;;7.40;99.90;;;;;;4208130;28;20077;-45
2021/01/05 10:35:19;;;;;;;27.33;15.50;;;7.50;99.90;;;;;;4208029;28;20488;-45
2021/01/05 10:37:20;;;;;;;25.77;17.07;;;7.50;99.90;;;;;;4208017;28;20032;-47
2021/01/05 10:39:22;;;;;;;28.93;19.77;;;7.50;99.90;;;;;;4207697;28;20438;-45
2021/01/05 10:41:35;;;;;;;35.63;21.13;;;7.60;99.90;;;;;;4208487;28;20092;-47
2021/01/05 10:43:36;;;;;;;36.03;21.60;;;7.60;99.90;;;;;;4207395;28;20032;-48